Time;durP1;ratioP1;P1;durP2;ratioP2;P2;SDS_P1;SDS_P2;PMS_P1;PMS_P2;Temp;Humidity;BMP_temperature;BMP_pressure;BME280_temperature;BME280_humidity;BME280_pressure;Samples;Min_cycle;Max_cycle;Signal;HPM_P1;HPM_P2
2023/03/30 00:01:02;;;;;;;18.27;15.90;;;12.60;90.30;;;15.26;62.46;100610.69;5033601;28;20709;-61
2023/03/30 00:03:32;;;;;;;18.40;16.60;;;12.60;90.40;;;15.24;62.32;100620.69;5040654;28;20205;-64
2023/03/30 00:06:04;;;;;;;16.90;15.20;;;12.60;90.40;;;15.27;62.36;100614.16;5053493;28;20236;-64
2023/03/30 00:08:32;;;;;;;16.80;15.00;;;12.60;90.30;;;15.28;62.53;100606.00;5034593;28;20212;-64
2023/03/30 00:11:00;;;;;;;17.60;15.63;;;12.60;90.30;;;15.30;62.09;100601.31;5044145;28;20210;-63
2023/03/30 00:13:29;;;;;;;16.80;15.10;;;12.60;90.30;;;15.29;62.18;100597.00;5052784;28;20202;-62
2023/03/30 00:15:56;;;;;;;17.23;15.43;;;12.60;90.30;;;15.30;62.18;100593.34;5054722;28;20188;-62
2023/03/30 00:18:23;;;;;;;19.17;16.40;;;12.60;90.30;;;15.29;62.17;100577.63;5054398;28;20203;-62
2023/03/30 00:20:52;;;;;;;18.13;16.33;;;12.70;90.30;;;15.24;62.34;100580.09;5054239;28;20731;-61
2023/03/30 00:23:19;;;;;;;19.23;17.23;;;12.60;90.30;;;15.20;62.31;100573.59;5048074;28;20647;-60
2023/03/30 00:25:46;;;;;;;17.60;15.57;;;12.60;90.30;;;15.19;62.61;100580.72;5034543;28;20213;-62
2023/03/30 00:28:13;;;;;;;17.23;15.40;;;12.60;90.40;;;15.09;63.02;100574.25;5034547;28;20202;-60
2023/03/30 00:30:40;;;;;;;17.57;15.67;;;12.60;90.40;;;15.06;62.99;100569.34;5034648;28;20203;-61
2023/03/30 00:33:07;;;;;;;16.20;14.60;;;12.60;90.40;;;15.04;63.10;100561.59;5035076;28;20194;-62
2023/03/30 00:35:35;;;;;;;16.67;14.97;;;12.60;90.40;;;15.05;62.96;100557.13;5051589;28;20218;-62
2023/03/30 00:38:04;;;;;;;16.70;14.97;;;12.50;90.40;;;15.03;63.22;100565.25;5055649;28;20555;-61
2023/03/30 00:40:33;;;;;;;16.53;14.83;;;12.50;90.50;;;15.07;62.94;100566.47;5054131;28;20237;-62
2023/03/30 00:43:03;;;;;;;16.03;14.40;;;12.50;90.50;;;15.12;62.86;100563.22;5027191;28;20206;-61
2023/03/30 00:45:34;;;;;;;16.20;13.87;;;12.50;90.50;;;15.14;62.65;100550.56;5060110;28;20276;-62
2023/03/30 00:48:06;;;;;;;16.93;15.20;;;12.50;90.50;;;15.17;62.48;100552.78;5034612;28;20190;-62
2023/03/30 00:50:40;;;;;;;16.73;15.03;;;12.50;90.50;;;15.16;62.26;100545.88;5033897;28;20203;-61
2023/03/30 00:53:15;;;;;;;15.10;13.50;;;12.50;90.50;;;15.16;62.34;100530.78;5037195;28;20200;-62
2023/03/30 00:55:46;;;;;;;16.53;14.83;;;12.50;90.40;;;15.20;62.42;100523.22;5035821;28;20292;-60
2023/03/30 00:58:16;;;;;;;16.97;15.27;;;12.50;90.40;;;15.19;62.48;100518.94;5036665;28;20206;-61
2023/03/30 01:00:46;;;;;;;15.90;14.40;;;12.50;90.30;;;15.16;62.04;100516.69;5054091;28;20546;-62
2023/03/30 01:03:21;;;;;;;17.20;15.33;;;12.50;90.30;;;15.10;62.33;100525.47;5052680;28;20681;-63
2023/03/30 01:05:50;;;;;;;16.37;14.67;;;12.50;90.30;;;15.07;62.34;100513.44;5053718;28;20649;-63
2023/03/30 01:08:22;;;;;;;16.27;14.67;;;12.50;90.30;;;15.06;62.30;100509.19;5056469;28;20197;-63
2023/03/30 01:10:51;;;;;;;16.90;14.80;;;12.50;90.30;;;15.04;62.83;100502.47;5058124;28;20684;-62
2023/03/30 01:13:19;;;;;;;15.17;13.67;;;12.40;90.30;;;15.01;62.40;100503.69;5056928;28;20193;-62
2023/03/30 01:16:07;;;;;;;14.87;13.37;;;12.40;90.30;;;15.04;62.28;100498.00;5057613;28;20197;-62
2023/03/30 01:18:53;;;;;;;15.57;13.90;;;12.40;90.30;;;15.04;62.39;100487.38;5058763;28;20666;-63
2023/03/30 01:22:00;;;;;;;15.20;13.70;;;12.40;90.30;;;14.98;62.36;100482.91;5058542;28;20189;-61
2023/03/30 01:25:19;;;;;;;15.73;14.07;;;12.40;90.30;;;14.95;62.40;100461.31;5053824;28;20225;-63
2023/03/30 01:28:17;;;;;;;15.53;13.77;;;12.40;90.20;;;14.86;62.55;100458.91;5066576;28;20201;-64
2023/03/30 01:31:13;;;;;;;14.27;12.77;;;12.40;90.30;;;14.85;62.53;100444.03;5069884;28;20244;-62
2023/03/30 01:34:26;;;;;;;15.37;13.87;;;12.40;90.20;;;14.74;62.85;100430.59;5054070;28;20209;-61
2023/03/30 01:37:31;;;;;;;15.13;13.53;;;12.30;90.20;;;14.68;63.07;100440.22;5057730;28;20194;-62
2023/03/30 01:40:08;;;;;;;15.50;13.13;;;12.30;90.30;;;14.67;63.21;100437.75;5057133;28;20200;-62
2023/03/30 01:42:46;;;;;;;14.37;12.77;;;12.30;90.40;;;14.68;62.97;100434.09;5053218;28;20281;-61
2023/03/30 01:45:26;;;;;;;15.07;12.30;;;12.20;90.30;;;14.70;63.24;100432.88;5055123;28;20225;-61
2023/03/30 01:48:01;;;;;;;14.00;12.60;;;12.20;90.40;;;14.73;62.90;100421.84;5057224;28;20689;-61
2023/03/30 01:50:35;;;;;;;14.67;12.77;;;12.20;90.50;;;14.78;62.53;100419.41;5056984;28;20610;-60
2023/03/30 01:53:13;;;;;;;14.37;12.97;;;12.20;90.50;;;14.77;62.68;100417.75;5054998;28;20199;-61
2023/03/30 01:55:51;;;;;;;13.20;11.90;;;12.20;90.50;;;14.80;62.74;100420.00;5039100;28;20210;-63
2023/03/30 01:58:26;;;;;;;13.43;11.70;;;12.20;90.40;;;14.80;62.49;100404.09;5037924;28;20183;-60
2023/03/30 02:00:56;;;;;;;12.93;11.63;;;12.20;90.40;;;14.86;62.65;100400.59;5037284;28;20259;-61
2023/03/30 02:03:27;;;;;;;13.40;12.00;;;12.20;90.40;;;14.88;62.56;100380.00;5042898;28;20245;-62
2023/03/30 02:06:02;;;;;;;15.17;11.47;;;12.30;90.50;;;14.88;62.42;100380.00;5036821;28;20202;-62
2023/03/30 02:08:33;;;;;;;13.73;12.30;;;12.30;90.50;;;14.88;62.26;100382.63;5036136;28;20205;-60
2023/03/30 02:11:02;;;;;;;12.97;11.57;;;12.30;90.40;;;14.88;62.40;100380.00;5037194;28;20245;-62
2023/03/30 02:13:31;;;;;;;12.97;11.63;;;12.30;90.40;;;14.91;62.30;100382.22;5044673;28;20272;-63
2023/03/30 02:16:06;;;;;;;11.87;10.77;;;12.30;90.40;;;14.95;62.39;100376.50;5055871;28;20190;-62
2023/03/30 02:18:34;;;;;;;11.70;10.60;;;12.30;90.40;;;14.98;62.18;100360.97;5057483;28;20177;-62
2023/03/30 02:21:02;;;;;;;13.10;11.33;;;12.30;90.30;;;14.99;62.03;100361.81;5056782;28;20194;-60
2023/03/30 02:23:36;;;;;;;11.90;10.70;;;12.30;90.30;;;15.02;62.12;100364.03;5049469;28;20555;-62
2023/03/30 02:26:06;;;;;;;13.67;11.30;;;12.30;90.20;;;15.03;61.86;100353.22;5060131;28;20213;-61
2023/03/30 02:28:33;;;;;;;12.97;11.67;;;12.30;90.20;;;15.02;61.84;100353.44;5056737;28;20193;-61
2023/03/30 02:31:03;;;;;;;12.23;10.93;;;12.30;90.20;;;15.01;61.76;100343.84;5056945;28;20214;-64
2023/03/30 02:33:47;;;;;;;12.83;10.20;;;12.40;90.20;;;15.00;61.93;100337.72;5053928;28;20317;-60
2023/03/30 02:36:38;;;;;;;12.37;11.17;;;12.40;90.20;;;14.98;61.87;100339.78;5036962;28;20233;-65
2023/03/30 02:39:23;;;;;;;11.80;10.60;;;12.40;90.20;;;14.96;62.15;100341.00;5036973;28;20195;-63
2023/03/30 02:42:27;;;;;;;12.30;11.00;;;12.40;90.10;;;14.93;62.07;100320.25;5036578;28;20185;-61
2023/03/30 02:45:18;;;;;;;13.90;11.30;;;12.40;90.10;;;14.94;61.79;100312.09;5049359;28;20217;-63
2023/03/30 02:48:02;;;;;;;11.33;10.27;;;12.40;90.00;;;14.95;61.93;100326.16;5056918;28;20175;-62
2023/03/30 02:50:43;;;;;;;11.53;10.37;;;12.40;90.00;;;14.96;61.77;100330.41;5056405;28;20252;-61
2023/03/30 02:53:23;;;;;;;14.50;11.07;;;12.40;90.00;;;14.92;62.11;100335.34;5051580;28;20574;-61
2023/03/30 02:56:06;;;;;;;10.53;9.40;;;12.40;90.00;;;14.90;61.80;100316.19;5036860;28;20185;-62
2023/03/30 02:58:44;;;;;;;10.23;9.00;;;12.40;90.00;;;14.91;62.01;100323.94;5037505;28;20182;-61
2023/03/30 03:01:18;;;;;;;11.37;10.17;;;12.40;90.00;;;14.91;61.92;100328.41;5036366;28;20198;-64
2023/03/30 03:03:48;;;;;;;14.20;9.20;;;12.40;90.00;;;14.89;62.09;100320.69;5045196;28;20296;-61
2023/03/30 03:06:17;;;;;;;9.90;8.90;;;12.40;90.00;;;14.91;62.02;100323.09;5055749;28;20622;-66
2023/03/30 03:08:47;;;;;;;10.67;8.80;;;12.40;89.80;;;14.87;62.26;100322.75;5056226;28;20192;-63
2023/03/30 03:11:14;;;;;;;10.90;9.80;;;12.40;89.80;;;14.85;62.12;100308.91;5055432;28;20572;-62
2023/03/30 03:13:43;;;;;;;10.53;9.50;;;12.40;89.80;;;14.80;62.05;100316.66;5054492;28;20705;-60
2023/03/30 03:16:12;;;;;;;12.40;8.80;;;12.30;89.80;;;14.76;62.31;100315.44;5054541;28;20209;-61
2023/03/30 03:18:43;;;;;;;9.93;8.90;;;12.30;89.70;;;14.76;62.47;100315.44;5055796;28;20197;-63
2023/03/30 03:21:12;;;;;;;12.23;9.43;;;12.30;89.80;;;14.77;62.35;100311.78;5045537;28;20201;-62
2023/03/30 03:23:40;;;;;;;10.47;9.40;;;12.30;90.00;;;14.79;62.18;100309.72;5044823;28;20276;-64
2023/03/30 03:26:08;;;;;;;11.40;9.53;;;12.30;90.00;;;14.85;61.89;100308.06;5054325;28;20578;-62
2023/03/30 03:28:35;;;;;;;11.30;9.20;;;12.30;90.00;;;14.86;61.94;100305.19;5071927;28;20186;-66
2023/03/30 03:31:04;;;;;;;10.17;9.03;;;12.30;90.00;;;14.93;61.99;100299.06;5054301;28;20217;-63
2023/03/30 03:33:32;;;;;;;10.17;8.73;;;12.30;90.00;;;14.95;61.91;100297.00;5047543;28;20205;-62
2023/03/30 03:35:59;;;;;;;10.03;8.77;;;12.30;89.90;;;14.98;61.66;100291.25;5036677;28;20631;-64
2023/03/30 03:38:27;;;;;;;8.70;7.80;;;12.30;90.00;;;15.02;61.42;100295.13;5035697;28;20623;-61
2023/03/30 03:40:57;;;;;;;9.40;8.20;;;12.30;89.90;;;15.09;61.44;100298.53;5042167;28;20205;-61
2023/03/30 03:43:25;;;;;;;8.43;7.63;;;12.40;90.00;;;15.14;61.37;100296.84;5048701;28;20195;-65
2023/03/30 03:45:52;;;;;;;9.73;8.80;;;12.40;90.00;;;15.15;61.07;100292.38;5048278;28;20198;-64
2023/03/30 03:48:23;;;;;;;9.00;7.90;;;12.40;90.00;;;15.17;61.04;100282.34;5056019;28;20193;-63
2023/03/30 03:50:52;;;;;;;8.70;7.80;;;12.50;90.00;;;15.21;61.08;100280.91;5050587;28;20186;-63
2023/03/30 03:53:20;;;;;;;8.93;7.47;;;12.50;89.90;;;15.25;61.10;100266.19;5040970;28;20565;-63
2023/03/30 03:55:47;;;;;;;10.57;8.00;;;12.50;89.90;;;15.29;61.05;100272.69;5054765;28;20206;-60
2023/03/30 03:58:15;;;;;;;12.57;7.93;;;12.50;90.30;;;15.34;60.89;100264.88;5055590;28;20197;-62
2023/03/30 04:00:42;;;;;;;7.60;6.63;;;12.60;90.00;;;15.40;61.07;100269.34;5054544;28;20273;-62
2023/03/30 04:03:11;;;;;;;9.80;7.07;;;12.60;89.80;;;15.42;60.83;100272.59;5052148;28;20199;-62
2023/03/30 04:05:40;;;;;;;8.60;6.90;;;12.60;89.70;;;15.45;60.88;100264.22;5035075;28;20230;-63
2023/03/30 04:08:09;;;;;;;7.47;6.30;;;12.70;89.60;;;15.47;61.03;100264.81;5035754;28;20627;-64
2023/03/30 04:10:37;;;;;;;9.80;6.17;;;12.80;89.60;;;15.50;60.76;100269.66;5051440;28;20203;-65
2023/03/30 04:13:05;;;;;;;8.93;6.27;;;12.80;89.40;;;15.54;60.68;100265.56;5054311;28;20206;-63
2023/03/30 04:15:32;;;;;;;6.33;5.73;;;12.80;89.30;;;15.58;60.79;100256.13;5055097;28;20217;-65
2023/03/30 04:18:00;;;;;;;8.67;5.17;;;12.90;89.30;;;15.64;60.59;100255.28;5055268;28;20189;-63
2023/03/30 04:20:28;;;;;;;5.63;5.10;;;13.00;89.20;;;15.73;60.78;100259.25;5050860;28;20198;-61
2023/03/30 04:23:00;;;;;;;6.00;4.90;;;13.00;89.10;;;15.83;60.48;100246.28;5035601;28;20198;-62
2023/03/30 04:25:27;;;;;;;5.93;5.23;;;13.10;89.20;;;15.95;60.24;100235.75;5053935;28;20289;-63
2023/03/30 04:27:55;;;;;;;5.27;4.73;;;13.10;89.10;;;16.02;60.04;100224.00;5054010;28;20200;-61
2023/03/30 04:30:23;;;;;;;7.07;5.40;;;13.20;89.00;;;16.07;59.88;100218.84;5053714;28;20205;-62
2023/03/30 04:33:01;;;;;;;4.93;4.23;;;13.30;88.80;;;16.10;59.71;100223.72;5048947;28;20230;-62
2023/03/30 04:35:30;;;;;;;6.17;4.87;;;13.30;88.60;;;16.11;59.62;100230.66;5053359;28;20279;-61
2023/03/30 04:38:00;;;;;;;7.70;4.70;;;13.30;88.30;;;16.14;59.49;100230.19;5054010;28;20190;-64
2023/03/30 04:40:28;;;;;;;7.17;4.90;;;13.40;88.20;;;16.15;59.33;100237.13;5050840;28;20193;-63
2023/03/30 04:43:00;;;;;;;5.33;4.63;;;13.40;88.10;;;16.16;59.32;100241.41;5034029;28;20190;-63
2023/03/30 04:45:28;;;;;;;4.60;4.10;;;13.40;87.90;;;16.20;59.57;100239.94;5053495;28;20217;-64
2023/03/30 04:47:55;;;;;;;6.93;4.20;;;13.50;87.80;;;16.23;59.23;100234.19;5052691;28;20217;-64
2023/03/30 04:50:22;;;;;;;8.77;4.40;;;13.50;87.60;;;16.27;59.28;100232.69;5053022;28;20197;-59
2023/03/30 04:52:49;;;;;;;9.73;4.70;;;13.50;87.30;;;16.32;58.73;100232.03;5051767;28;20221;-63
2023/03/30 04:55:18;;;;;;;6.07;3.87;;;13.60;87.20;;;16.33;58.99;100217.69;5033885;28;20238;-64
2023/03/30 04:57:45;;;;;;;7.83;4.60;;;13.60;86.90;;;16.37;58.63;100218.06;5033799;28;20262;-62
2023/03/30 05:00:14;;;;;;;5.00;3.83;;;13.70;86.80;;;16.41;58.62;100220.03;5033601;28;20209;-62
2023/03/30 05:02:40;;;;;;;4.70;4.13;;;13.70;86.60;;;16.44;58.29;100224.91;5052222;28;20205;-62
2023/03/30 05:05:08;;;;;;;6.23;4.03;;;13.70;86.40;;;16.44;58.16;100221.44;5033488;28;20727;-64
2023/03/30 05:07:35;;;;;;;6.27;4.27;;;13.70;85.80;;;16.44;58.02;100224.09;5032570;28;20198;-63
2023/03/30 05:10:02;;;;;;;4.37;3.97;;;13.80;85.70;;;16.44;57.44;100229.41;5045474;28;20228;-62
2023/03/30 05:12:31;;;;;;;4.47;3.63;;;13.80;85.30;;;16.45;57.70;100231.81;5052913;28;20567;-64
2023/03/30 05:14:58;;;;;;;6.57;4.50;;;13.80;85.20;;;16.48;57.33;100235.88;5052390;28;20701;-62
2023/03/30 05:17:25;;;;;;;4.87;3.53;;;13.80;84.90;;;16.52;57.55;100216.63;5053263;28;20677;-63
2023/03/30 05:19:53;;;;;;;5.77;4.50;;;13.90;84.90;;;16.56;57.23;100217.84;5053908;28;20196;-64
2023/03/30 05:22:20;;;;;;;5.83;3.97;;;13.90;84.70;;;16.62;57.08;100226.72;5035147;28;20224;-61
2023/03/30 05:24:47;;;;;;;5.60;3.60;;;13.90;84.40;;;16.68;57.05;100225.84;5052640;28;20233;-63
2023/03/30 05:27:14;;;;;;;5.20;3.87;;;13.90;84.50;;;16.75;56.90;100221.22;5054280;28;20197;-63
2023/03/30 05:29:43;;;;;;;6.57;3.97;;;14.00;84.60;;;16.79;56.37;100207.25;5039949;28;20206;-61
2023/03/30 05:32:10;;;;;;;8.20;4.23;;;14.00;84.00;;;16.84;56.36;100204.72;5034011;28;20290;-60
2023/03/30 05:34:37;;;;;;;5.43;3.90;;;14.00;83.90;;;16.86;55.93;100196.50;5050672;28;20581;-62
2023/03/30 05:37:04;;;;;;;6.13;3.70;;;14.00;83.40;;;16.86;55.72;100193.84;5053267;28;20198;-62
2023/03/30 05:39:31;;;;;;;6.97;4.77;;;14.10;83.20;;;16.87;55.70;100203.47;5053671;28;20194;-63
2023/03/30 05:41:58;;;;;;;5.67;4.03;;;14.10;82.80;;;16.86;55.51;100196.50;5048188;28;20198;-63
2023/03/30 05:44:25;;;;;;;6.77;3.90;;;14.20;82.50;;;16.88;55.49;100195.25;5033918;28;20803;-62
2023/03/30 05:46:53;;;;;;;5.77;3.73;;;14.20;82.40;;;16.89;55.47;100202.19;5053080;28;20190;-62
2023/03/30 05:49:20;;;;;;;7.60;3.80;;;14.20;82.20;;;16.90;55.16;100195.81;5036941;28;20693;-63
2023/03/30 05:51:47;;;;;;;4.73;3.97;;;14.20;81.90;;;16.92;54.96;100195.63;5032912;28;20214;-64
2023/03/30 05:54:14;;;;;;;8.13;3.80;;;14.30;81.60;;;16.96;54.87;100191.44;5050780;28;20206;-62
2023/03/30 05:56:41;;;;;;;4.50;3.80;;;14.30;81.40;;;17.04;55.09;100196.44;5056712;28;20200;-60
2023/03/30 05:59:09;;;;;;;4.47;3.70;;;14.40;81.50;;;17.07;54.73;100197.84;5056917;28;20243;-64
2023/03/30 06:01:37;;;;;;;4.30;3.40;;;14.40;81.00;;;17.12;54.43;100200.59;5047217;28;20247;-63
2023/03/30 06:04:06;;;;;;;4.57;3.10;;;14.40;81.00;;;17.14;54.33;100201.97;5051655;28;20221;-64
2023/03/30 06:06:33;;;;;;;4.20;3.30;;;14.50;80.80;;;17.15;54.23;100208.94;5037652;28;20199;-61
2023/03/30 06:09:01;;;;;;;6.30;4.23;;;14.50;80.50;;;17.20;54.37;100198.41;5039530;28;20193;-61
2023/03/30 06:11:28;;;;;;;7.27;3.53;;;14.60;80.70;;;17.20;53.96;100195.75;5055762;28;20198;-63
2023/03/30 06:13:55;;;;;;;4.73;3.30;;;14.50;80.10;;;17.23;53.93;100184.66;5046807;28;20304;-62
2023/03/30 06:16:23;;;;;;;3.93;3.53;;;14.60;80.00;;;17.26;53.75;100186.03;5055780;28;20225;-61
2023/03/30 06:18:51;;;;;;;5.53;3.60;;;14.60;79.90;;;17.32;53.84;100185.94;5055810;28;20285;-64
2023/03/30 06:21:19;;;;;;;5.27;3.30;;;14.70;79.80;;;17.38;53.83;100195.63;5048987;28;20202;-62
2023/03/30 06:23:47;;;;;;;7.20;4.23;;;14.70;79.80;;;17.41;53.54;100200.50;5035352;28;20643;-63
2023/03/30 06:26:14;;;;;;;3.63;3.17;;;14.70;79.60;;;17.44;53.69;100188.56;5053691;28;20201;-62
2023/03/30 06:28:42;;;;;;;5.70;3.07;;;14.80;79.60;;;17.53;53.58;100197.84;5055394;28;20196;-63
2023/03/30 06:31:10;;;;;;;7.57;3.53;;;14.80;79.70;;;17.66;53.36;100191.47;5049673;28;20195;-62
2023/03/30 06:33:38;;;;;;;3.27;2.90;;;14.90;79.70;;;17.72;53.18;100194.00;5034636;28;20245;-64
2023/03/30 06:36:10;;;;;;;4.43;3.37;;;14.90;79.50;;;17.80;52.79;100198.16;5036183;28;20218;-62
2023/03/30 06:38:40;;;;;;;4.33;3.27;;;15.00;79.30;;;17.89;52.82;100212.72;5049284;28;20210;-64
2023/03/30 06:41:08;;;;;;;5.73;2.87;;;15.00;79.30;;;17.96;52.64;100198.25;5049859;28;20281;-63
2023/03/30 06:43:36;;;;;;;3.97;2.40;;;15.10;79.40;;;18.06;52.63;100202.97;5035930;28;20204;-64
2023/03/30 06:46:04;;;;;;;5.43;3.50;;;15.10;79.30;;;18.13;52.43;100203.63;5054397;28;20206;-65
2023/03/30 06:48:31;;;;;;;5.17;2.90;;;15.20;79.20;;;18.27;52.38;100199.63;5055308;28;20205;-65
2023/03/30 06:50:59;;;;;;;4.67;3.20;;;15.20;79.20;;;18.41;52.21;100200.97;5051380;28;20196;-64
2023/03/30 06:53:27;;;;;;;3.07;2.60;;;15.30;79.30;;;18.56;51.86;100201.28;5036439;28;20218;-63
2023/03/30 06:55:57;;;;;;;4.10;3.20;;;15.40;79.20;;;18.66;51.89;100198.78;5035627;28;20201;-61
2023/03/30 06:58:26;;;;;;;6.13;3.20;;;15.50;79.10;;;18.75;51.28;100192.03;5036012;28;20195;-62
2023/03/30 07:00:54;;;;;;;4.57;2.53;;;15.60;78.60;;;18.86;51.18;100183.13;5039274;28;20224;-62
2023/03/30 07:03:21;;;;;;;8.87;3.60;;;15.70;78.50;;;18.93;50.57;100183.78;5056376;28;20654;-66
2023/03/30 07:05:49;;;;;;;5.77;3.30;;;15.80;77.80;;;18.99;50.60;100191.88;5055878;28;20215;-63
2023/03/30 07:08:17;;;;;;;6.57;3.07;;;15.90;77.60;;;19.02;50.39;100189.50;5055357;28;20247;-60
2023/03/30 07:10:46;;;;;;;4.10;2.90;;;16.00;77.30;;;19.06;50.32;100181.84;5054309;28;20288;-62
2023/03/30 07:13:16;;;;;;;3.30;2.97;;;16.00;77.00;;;19.09;50.40;100181.34;5056156;28;20299;-65
2023/03/30 07:15:45;;;;;;;5.27;3.67;;;16.10;77.00;;;19.05;50.32;100181.03;5055312;28;20209;-63
2023/03/30 07:18:13;;;;;;;6.93;4.20;;;16.10;76.40;;;19.04;50.07;100183.94;5062365;28;20550;-64
2023/03/30 07:20:40;;;;;;;6.93;3.17;;;16.10;76.20;;;19.00;50.38;100180.94;5035185;28;20202;-65
2023/03/30 07:23:09;;;;;;;8.70;3.53;;;16.10;75.90;;;19.02;50.00;100191.38;5034784;28;20183;-64
2023/03/30 07:25:36;;;;;;;5.63;3.20;;;16.10;76.00;;;19.04;50.03;100189.28;5045419;28;20217;-64
2023/03/30 07:28:05;;;;;;;5.50;3.43;;;16.20;76.10;;;19.08;50.24;100190.41;5046278;28;20202;-62
2023/03/30 07:30:34;;;;;;;9.27;3.87;;;16.20;75.90;;;19.08;49.92;100190.41;5034716;28;20242;-65
2023/03/30 07:33:02;;;;;;;4.17;2.70;;;16.20;75.70;;;19.06;49.90;100203.19;5054014;28;20221;-62
2023/03/30 07:35:29;;;;;;;4.60;2.93;;;16.20;75.80;;;19.01;50.13;100192.44;5054528;28;20218;-62
2023/03/30 07:37:56;;;;;;;3.93;2.53;;;16.30;75.70;;;19.08;50.33;100198.41;5053996;28;20190;-63
2023/03/30 07:40:29;;;;;;;3.53;2.53;;;16.30;75.80;;;19.11;50.10;100196.03;5054186;28;20485;-65
2023/03/30 07:42:57;;;;;;;6.00;3.20;;;16.30;75.90;;;19.12;50.47;100199.53;5054465;28;20666;-62
2023/03/30 07:45:25;;;;;;;3.77;2.77;;;16.30;75.80;;;19.18;50.25;100195.91;5053490;28;20248;-61
2023/03/30 07:47:54;;;;;;;3.90;3.10;;;16.40;76.00;;;19.44;50.45;100200.59;5048454;28;20210;-64
2023/03/30 07:50:24;;;;;;;4.40;2.70;;;16.40;76.30;;;19.82;49.46;100189.91;5039492;28;20519;-62
2023/03/30 07:52:51;;;;;;;6.07;3.30;;;16.60;76.50;;;20.39;49.21;100186.81;5043564;28;20214;-63
2023/03/30 07:55:18;;;;;;;3.53;2.40;;;16.90;76.30;;;21.32;47.82;100192.41;5045117;28;20209;-61
2023/03/30 07:57:46;;;;;;;4.27;2.97;;;17.30;75.90;;;22.48;46.60;100190.25;5042379;28;20218;-65
2023/03/30 08:00:17;;;;;;;7.60;2.83;;;17.90;76.30;;;23.01;43.53;100183.59;5030756;28;20198;-61
2023/03/30 08:02:44;;;;;;;3.57;2.80;;;18.50;71.50;;;23.09;42.85;100185.75;5040784;28;20201;-62
2023/03/30 08:05:14;;;;;;;4.67;3.00;;;18.90;69.90;;;23.08;42.48;100184.16;5042173;28;20713;-62
2023/03/30 08:07:41;;;;;;;3.87;2.37;;;19.20;68.80;;;23.18;42.32;100186.78;5038791;28;20276;-63
2023/03/30 08:10:10;;;;;;;2.83;2.57;;;19.40;67.50;;;23.28;41.79;100189.47;5045971;28;20190;-63
2023/03/30 08:12:37;;;;;;;3.27;2.13;;;19.60;66.60;;;23.38;41.85;100188.69;5045590;28;20289;-65
2023/03/30 08:15:05;;;;;;;5.10;2.60;;;19.70;66.50;;;23.71;41.33;100188.06;5045040;28;20221;-65
2023/03/30 08:17:32;;;;;;;6.47;3.13;;;19.90;66.20;;;23.91;41.03;100188.00;5044200;28;20198;-62
2023/03/30 08:20:00;;;;;;;4.03;2.80;;;20.10;65.80;;;23.81;40.14;100192.59;5032770;28;20673;-63
2023/03/30 08:22:29;;;;;;;5.63;2.73;;;20.20;63.60;;;23.52;40.41;100195.91;5044299;28;20194;-65
2023/03/30 08:24:56;;;;;;;4.93;2.43;;;20.10;63.40;;;23.25;40.93;100187.31;5039799;28;20243;-64
2023/03/30 08:27:23;;;;;;;4.50;2.23;;;20.00;63.60;;;23.01;41.58;100196.22;5047027;28;20200;-66
2023/03/30 08:29:53;;;;;;;3.57;2.30;;;19.90;63.60;;;22.68;41.52;100195.66;5044766;28;20662;-63
2023/03/30 08:32:20;;;;;;;4.40;2.63;;;19.70;63.50;;;22.36;42.27;100199.63;5048334;28;20612;-63
2023/03/30 08:34:47;;;;;;;5.07;2.50;;;19.60;64.00;;;22.16;42.43;100205.72;5050031;28;20229;-63
2023/03/30 08:37:14;;;;;;;3.50;2.50;;;19.40;64.30;;;22.08;42.87;100206.25;5050813;28;20205;-63
2023/03/30 08:39:42;;;;;;;4.17;2.60;;;19.20;64.90;;;21.93;43.00;100208.88;5039960;28;20194;-64
2023/03/30 08:42:38;;;;;;;5.57;3.07;;;19.10;65.10;;;21.72;43.40;100213.31;5015992;28;20789;-62
2023/03/30 08:45:10;;;;;;;4.57;3.00;;;19.00;65.50;;;21.82;43.33;100207.19;5037347;28;20230;-64
2023/03/30 08:47:42;;;;;;;2.60;2.20;;;18.90;65.90;;;21.83;43.16;100203.41;5046364;28;20206;-65
2023/03/30 08:50:16;;;;;;;3.03;1.80;;;18.80;65.70;;;21.79;43.18;100213.06;5044864;28;20195;-63
2023/03/30 08:52:43;;;;;;;3.83;2.53;;;18.80;65.60;;;21.70;43.44;100214.63;5042616;28;20254;-64
2023/03/30 08:55:23;;;;;;;2.33;2.03;;;18.80;65.90;;;21.63;43.35;100206.00;5035440;28;20213;-61
2023/03/30 08:57:56;;;;;;;3.37;2.17;;;18.70;65.80;;;21.57;43.41;100205.97;5038278;28;20511;-63
2023/03/30 09:00:36;;;;;;;4.00;2.20;;;18.60;65.50;;;21.67;43.59;100204.41;5043432;28;20671;-62
2023/03/30 09:03:16;;;;;;;3.97;1.90;;;18.60;66.10;;;22.50;42.85;100201.53;5047408;28;20191;-63
2023/03/30 09:05:53;;;;;;;3.27;2.10;;;18.80;67.20;;;23.79;40.74;100211.69;5041702;28;20213;-62
2023/03/30 09:08:27;;;;;;;3.30;1.93;;;19.20;66.50;;;25.06;38.79;100193.72;5036869;28;20686;-63
2023/03/30 09:11:00;;;;;;;4.30;2.13;;;19.90;65.00;;;25.92;35.65;100200.91;5041908;28;20860;-66
2023/03/30 09:13:32;;;;;;;3.93;2.30;;;20.70;60.90;;;26.18;34.84;100191.44;5040429;28;20213;-64
2023/03/30 09:16:13;;;;;;;3.47;2.40;;;21.20;59.00;;;26.86;33.56;100192.59;5046939;28;20216;-63
2023/03/30 09:18:43;;;;;;;3.30;2.30;;;21.70;56.90;;;27.32;32.57;100186.38;5043431;28;20569;-66
2023/03/30 09:21:12;;;;;;;6.23;2.30;;;22.20;55.70;;;28.05;31.88;100186.34;5052173;28;20206;-63
2023/03/30 09:23:40;;;;;;;4.10;2.17;;;22.70;54.80;;;28.56;30.38;100194.94;5040644;28;20222;-65
2023/03/30 09:26:22;;;;;;;4.73;2.43;;;23.20;52.50;;;29.09;30.44;100186.88;5046304;28;20241;-66
2023/03/30 09:28:59;;;;;;;5.20;2.27;;;23.70;51.90;;;29.77;28.52;100191.03;5043930;28;20201;-62
2023/03/30 09:31:38;;;;;;;3.73;2.00;;;24.20;49.60;;;30.19;28.55;100187.59;5052786;28;20202;-65
2023/03/30 09:34:24;;;;;;;4.87;2.40;;;24.60;48.60;;;30.83;27.06;100195.94;5050673;28;20697;-64
2023/03/30 09:36:56;;;;;;;5.03;2.37;;;25.10;48.00;;;31.11;26.38;100198.00;5044072;28;20244;-64
2023/03/30 09:39:26;;;;;;;4.17;2.03;;;25.50;44.50;;;31.34;25.61;100206.72;5050467;28;20662;-64
2023/03/30 09:42:17;;;;;;;2.80;1.80;;;25.80;44.20;;;31.41;25.60;100210.53;5048454;28;20200;-65
2023/03/30 09:44:50;;;;;;;3.97;2.50;;;26.10;41.80;;;31.10;25.58;100195.59;5050322;28;20206;-63
2023/03/30 09:47:34;;;;;;;3.83;2.33;;;26.10;40.80;;;30.80;25.90;100198.19;5055960;28;20256;-64
2023/03/30 09:50:06;;;;;;;3.57;2.30;;;26.20;40.70;;;30.71;25.33;100194.66;5052052;28;20319;-65
2023/03/30 09:52:38;;;;;;;4.33;2.00;;;26.10;40.50;;;30.37;25.66;100211.00;5052883;28;20210;-65
2023/03/30 09:55:29;;;;;;;4.10;2.13;;;25.90;39.60;;;29.51;26.09;100201.78;5041830;28;20233;-64
2023/03/30 09:58:12;;;;;;;4.93;2.30;;;25.60;39.80;;;28.64;27.11;100201.56;5050295;28;20214;-64
2023/03/30 10:00:40;;;;;;;4.80;1.90;;;25.10;40.00;;;27.78;28.13;100205.28;5053231;28;20197;-65
2023/03/30 10:03:18;;;;;;;6.17;2.20;;;24.60;40.80;;;27.35;29.13;100204.72;5034466;28;20206;-62
2023/03/30 10:06:02;;;;;;;4.93;2.20;;;24.20;42.20;;;27.52;29.41;100191.44;5048039;28;20194;-63
2023/03/30 10:08:34;;;;;;;5.97;2.03;;;23.90;43.70;;;27.91;28.61;100193.63;5048220;28;20190;-65
2023/03/30 10:11:09;;;;;;;3.60;1.97;;;23.80;43.70;;;28.56;28.25;100204.94;5048365;28;20720;-65
2023/03/30 10:13:42;;;;;;;3.00;2.20;;;24.00;44.10;;;29.17;27.69;100199.66;5043031;28;20229;-62
2023/03/30 10:16:23;;;;;;;4.20;2.30;;;24.20;44.00;;;29.83;26.60;100206.88;5051658;28;20234;-65
2023/03/30 10:18:54;;;;;;;3.77;2.00;;;24.50;43.30;;;30.28;25.50;100201.22;5050715;28;20552;-63
2023/03/30 10:21:26;;;;;;;5.43;2.27;;;24.80;42.30;;;30.07;26.43;100187.44;5051258;28;20194;-62
2023/03/30 10:24:03;;;;;;;5.63;2.77;;;25.10;42.20;;;29.71;26.32;100186.84;5051304;28;20635;-63
2023/03/30 10:26:30;;;;;;;5.03;2.37;;;25.20;41.70;;;29.65;26.97;100182.66;5045752;28;20211;-64